Time;durP1;ratioP1;P1;durP2;ratioP2;P2;SDS_P1;SDS_P2;PMS_P1;PMS_P2;Temp;Humidity;BMP_temperature;BMP_pressure;BME280_temperature;BME280_humidity;BME280_pressure;Samples;Min_cycle;Max_cycle;Signal;HPM_P1;HPM_P2
2024/04/06 00:00:18;;;;;;;1.87;1.43;;;;;;;;;;5111094;28;20211;-58
2024/04/06 00:02:45;;;;;;;1.87;1.73;;;;;;;;;;5111834;28;20690;-58
2024/04/06 00:05:12;;;;;;;8.13;2.63;;;;;;;;;;5109882;28;20177;-61
2024/04/06 00:07:38;;;;;;;2.27;2.07;;;;;;;;;;5110018;28;20261;-61
2024/04/06 00:10:04;;;;;;;1.90;1.57;;;;;;;;;;5109280;28;20223;-61
2024/04/06 00:12:30;;;;;;;2.83;1.70;;;;;;;;;;5109980;28;20221;-60
2024/04/06 00:14:56;;;;;;;1.50;1.40;;;;;;;;;;5109704;28;20220;-61
2024/04/06 00:17:22;;;;;;;1.80;1.60;;;;;;;;;;5109671;28;20202;-61
2024/04/06 00:19:48;;;;;;;2.80;1.50;;;;;;;;;;5110059;28;20164;-60
2024/04/06 00:22:14;;;;;;;1.90;1.70;;;;;;;;;;5109311;28;20214;-61
2024/04/06 00:24:40;;;;;;;2.13;1.80;;;;;;;;;;5109797;28;20171;-61
2024/04/06 00:27:06;;;;;;;2.40;2.07;;;;;;;;;;5114136;28;20506;-60
2024/04/06 00:29:32;;;;;;;2.87;1.50;;;;;;;;;;5113132;28;20173;-60
2024/04/06 00:31:58;;;;;;;4.00;1.80;;;;;;;;;;5113744;28;20250;-61
2024/04/06 00:34:24;;;;;;;3.30;2.13;;;;;;;;;;5113802;28;20567;-62
2024/04/06 00:36:50;;;;;;;1.47;1.37;;;;;;;;;;5103482;28;20233;-60
2024/04/06 00:39:17;;;;;;;3.20;1.90;;;;;;;;;;5091818;28;20397;-63
2024/04/06 00:41:43;;;;;;;1.57;1.47;;;;;;;;;;5093205;28;20172;-62
2024/04/06 00:44:09;;;;;;;2.10;1.90;;;;;;;;;;5092975;28;20172;-61
2024/04/06 00:46:35;;;;;;;2.20;1.93;;;;;;;;;;5093208;28;20159;-61
2024/04/06 00:49:01;;;;;;;3.17;1.60;;;;;;;;;;5093245;28;20614;-60
2024/04/06 00:51:27;;;;;;;3.40;1.63;;;;;;;;;;5092365;28;20203;-60
2024/04/06 00:53:53;;;;;;;2.60;1.67;;;;;;;;;;5092451;28;20262;-60
2024/04/06 00:56:19;;;;;;;2.73;1.67;;;;;;;;;;5092915;28;20161;-61
2024/04/06 00:58:45;;;;;;;3.63;1.50;;;;;;;;;;5092381;28;20258;-60
2024/04/06 01:01:11;;;;;;;1.93;1.60;;;;;;;;;;5092421;28;20171;-61
2024/04/06 01:03:37;;;;;;;1.50;1.37;;;;;;;;;;5092520;28;20229;-61
2024/04/06 01:06:04;;;;;;;1.50;1.40;;;;;;;;;;5092631;28;20259;-61
2024/04/06 01:08:32;;;;;;;2.23;1.70;;;;;;;;;;5092360;28;20194;-61
2024/04/06 01:11:00;;;;;;;1.77;1.67;;;;;;;;;;5092283;28;20217;-61
2024/04/06 01:13:26;;;;;;;2.50;1.60;;;;;;;;;;5092280;28;20209;-61
2024/04/06 01:15:52;;;;;;;4.03;1.87;;;;;;;;;;5074030;28;20168;-61
2024/04/06 01:18:18;;;;;;;5.47;1.87;;;;;;;;;;5092414;28;20249;-61
2024/04/06 01:20:46;;;;;;;2.60;2.10;;;;;;;;;;5091754;28;20178;-61
2024/04/06 01:23:12;;;;;;;3.27;1.93;;;;;;;;;;5091826;28;20640;-61
2024/04/06 01:25:38;;;;;;;1.90;1.60;;;;;;;;;;5092026;28;20168;-61
2024/04/06 01:28:04;;;;;;;3.10;1.53;;;;;;;;;;5092188;28;20631;-64
2024/04/06 01:30:30;;;;;;;3.43;2.20;;;;;;;;;;5091884;28;20599;-61
2024/04/06 01:32:56;;;;;;;3.00;2.10;;;;;;;;;;5092005;28;20249;-61
2024/04/06 01:35:22;;;;;;;3.17;1.57;;;;;;;;;;5091616;28;20176;-62
2024/04/06 01:37:48;;;;;;;2.33;1.80;;;;;;;;;;5091053;28;20187;-62
2024/04/06 01:40:15;;;;;;;2.27;2.07;;;;;;;;;;5091341;28;20168;-62
2024/04/06 01:42:41;;;;;;;3.13;1.87;;;;;;;;;;5091961;28;20156;-62
2024/04/06 01:45:07;;;;;;;3.93;1.70;;;;;;;;;;5091640;28;20175;-62
2024/04/06 01:47:33;;;;;;;3.30;1.60;;;;;;;;;;5092030;28;20224;-62
2024/04/06 01:50:04;;;;;;;2.80;1.90;;;;;;;;;;5091630;28;20172;-62
2024/04/06 01:52:30;;;;;;;2.37;1.87;;;;;;;;;;5131721;27;20221;-62
2024/04/06 01:54:58;;;;;;;2.40;2.20;;;;;;;;;;5132292;27;20170;-62
2024/04/06 01:57:24;;;;;;;2.33;1.90;;;;;;;;;;5133001;27;20159;-62
2024/04/06 01:59:50;;;;;;;2.80;1.80;;;;;;;;;;5132162;27;20166;-62
2024/04/06 02:02:16;;;;;;;1.93;1.67;;;;;;;;;;5133073;27;20665;-61
2024/04/06 02:04:46;;;;;;;2.00;1.70;;;;;;;;;;5132211;27;20159;-62
2024/04/06 02:07:12;;;;;;;2.60;1.80;;;;;;;;;;5132397;27;20205;-62
2024/04/06 02:09:38;;;;;;;2.30;1.93;;;;;;;;;;5132166;27;20174;-62
2024/04/06 02:12:04;;;;;;;3.10;2.03;;;;;;;;;;5132560;27;20194;-62
2024/04/06 02:14:30;;;;;;;3.10;2.00;;;;;;;;;;5132321;27;20777;-61
2024/04/06 02:16:56;;;;;;;3.13;2.07;;;;;;;;;;5132292;27;20221;-62
2024/04/06 02:19:22;;;;;;;1.90;1.70;;;;;;;;;;5132584;27;20536;-61
2024/04/06 02:21:48;;;;;;;2.20;1.50;;;;;;;;;;5132039;27;20642;-61
2024/04/06 02:24:17;;;;;;;5.07;1.90;;;;;;;;;;5131308;27;20589;-61
2024/04/06 02:26:43;;;;;;;1.93;1.80;;;;;;;;;;5132202;27;21043;-62
2024/04/06 02:29:09;;;;;;;2.87;2.20;;;;;;;;;;5131593;27;20201;-61
2024/04/06 02:31:35;;;;;;;3.60;2.10;;;;;;;;;;5132081;27;20339;-61
2024/04/06 02:34:01;;;;;;;3.40;2.43;;;;;;;;;;5131780;27;20171;-62
2024/04/06 02:36:27;;;;;;;2.60;1.87;;;;;;;;;;5119058;27;20168;-61
2024/04/06 02:38:53;;;;;;;3.77;2.30;;;;;;;;;;5090775;28;20167;-62
2024/04/06 02:41:19;;;;;;;2.77;1.83;;;;;;;;;;5091139;28;20631;-61
2024/04/06 02:43:45;;;;;;;2.00;1.90;;;;;;;;;;5090239;28;20166;-61
2024/04/06 02:46:11;;;;;;;2.23;1.80;;;;;;;;;;5090852;28;20167;-61
2024/04/06 02:48:38;;;;;;;2.20;1.70;;;;;;;;;;5090699;28;20229;-62
2024/04/06 02:51:04;;;;;;;2.67;1.80;;;;;;;;;;5090315;28;20226;-61
2024/04/06 02:53:30;;;;;;;3.27;2.27;;;;;;;;;;5090059;28;20267;-61
2024/04/06 02:55:56;;;;;;;3.93;1.73;;;;;;;;;;5090857;28;20166;-62
2024/04/06 02:58:23;;;;;;;4.70;2.00;;;;;;;;;;5090272;28;20512;-62
2024/04/06 03:00:49;;;;;;;1.73;1.60;;;;;;;;;;5090259;28;20171;-61
2024/04/06 03:03:15;;;;;;;3.00;2.20;;;;;;;;;;5090484;28;20190;-62
2024/04/06 03:05:41;;;;;;;2.50;2.30;;;;;;;;;;5089843;28;20236;-61
2024/04/06 03:08:07;;;;;;;2.10;1.90;;;;;;;;;;5089941;28;20168;-61
2024/04/06 03:10:33;;;;;;;2.70;1.90;;;;;;;;;;5090146;28;20660;-62
2024/04/06 03:12:59;;;;;;;3.60;2.10;;;;;;;;;;5090317;28;20528;-62
2024/04/06 03:15:25;;;;;;;2.17;1.73;;;;;;;;;;5089797;28;20259;-61
2024/04/06 03:17:52;;;;;;;2.30;1.77;;;;;;;;;;5090208;28;20191;-62
2024/04/06 03:20:18;;;;;;;2.23;1.83;;;;;;;;;;5089527;28;20536;-61
2024/04/06 03:23:00;;;;;;;2.20;1.77;;;;;;;;;;5090042;28;20605;-61
2024/04/06 03:25:29;;;;;;;3.73;1.80;;;;;;;;;;5090042;28;20217;-61
2024/04/06 03:27:56;;;;;;;2.70;1.83;;;;;;;;;;5090409;28;20217;-61
2024/04/06 03:30:22;;;;;;;2.83;1.93;;;;;;;;;;5089725;28;20198;-61
2024/04/06 03:32:49;;;;;;;2.87;1.80;;;;;;;;;;5090560;28;20222;-61
2024/04/06 03:35:15;;;;;;;2.43;2.03;;;;;;;;;;5089564;28;20162;-61
2024/04/06 03:37:41;;;;;;;1.90;1.67;;;;;;;;;;5090070;28;20654;-61
2024/04/06 03:40:09;;;;;;;3.67;2.40;;;;;;;;;;5089582;28;20517;-61
2024/04/06 03:42:35;;;;;;;1.70;1.60;;;;;;;;;;5090066;28;20248;-61
2024/04/06 03:45:03;;;;;;;3.47;2.20;;;;;;;;;;5089506;28;20175;-61
2024/04/06 03:47:29;;;;;;;1.80;1.67;;;;;;;;;;5090204;28;20668;-61
2024/04/06 03:49:55;;;;;;;3.10;1.97;;;;;;;;;;5088354;28;20182;-61
2024/04/06 03:52:21;;;;;;;4.07;1.97;;;;;;;;;;5089291;28;20962;-61
2024/04/06 03:54:47;;;;;;;2.80;1.93;;;;;;;;;;5089393;28;20160;-61
2024/04/06 03:57:15;;;;;;;3.33;2.20;;;;;;;;;;5089763;28;20175;-63
2024/04/06 03:59:41;;;;;;;2.90;2.03;;;;;;;;;;5089422;28;20613;-63
2024/04/06 04:02:07;;;;;;;2.33;1.93;;;;;;;;;;5094080;28;20601;-63
2024/04/06 04:04:33;;;;;;;1.70;1.60;;;;;;;;;;5093508;28;20234;-63
2024/04/06 04:06:59;;;;;;;2.70;2.00;;;;;;;;;;5093356;28;20289;-63
2024/04/06 04:09:26;;;;;;;2.57;2.00;;;;;;;;;;5091815;28;20579;-63
2024/04/06 04:11:52;;;;;;;1.90;1.80;;;;;;;;;;5093606;28;20635;-63
2024/04/06 04:14:18;;;;;;;2.30;2.10;;;;;;;;;;5093566;28;20167;-64
2024/04/06 04:16:44;;;;;;;2.23;1.90;;;;;;;;;;5093652;28;20170;-64
2024/04/06 04:19:11;;;;;;;1.83;1.60;;;;;;;;;;5093397;28;20633;-63
2024/04/06 04:21:37;;;;;;;1.87;1.77;;;;;;;;;;5093269;28;20187;-64
2024/04/06 04:24:03;;;;;;;4.10;1.83;;;;;;;;;;5092918;28;20256;-63
2024/04/06 04:26:29;;;;;;;2.97;1.73;;;;;;;;;;5093188;28;20312;-63
2024/04/06 04:28:55;;;;;;;2.83;2.00;;;;;;;;;;5092931;28;20287;-63
2024/04/06 04:31:21;;;;;;;2.30;2.10;;;;;;;;;;5093115;28;20195;-63
2024/04/06 04:33:47;;;;;;;3.30;1.70;;;;;;;;;;5093159;28;20170;-62
2024/04/06 04:36:13;;;;;;;1.50;1.40;;;;;;;;;;5096670;28;20187;-62
2024/04/06 04:38:40;;;;;;;3.03;1.80;;;;;;;;;;5113170;28;20796;-64
2024/04/06 04:41:06;;;;;;;2.13;1.70;;;;;;;;;;5113445;28;20198;-65
2024/04/06 04:43:32;;;;;;;2.83;1.57;;;;;;;;;;5113324;28;20549;-64
2024/04/06 04:45:58;;;;;;;2.00;1.60;;;;;;;;;;5113191;28;20264;-64
2024/04/06 04:48:24;;;;;;;1.53;1.40;;;;;;;;;;5113550;28;20233;-63
2024/04/06 04:50:51;;;;;;;2.83;2.13;;;;;;;;;;5112918;28;20162;-64
2024/04/06 04:53:17;;;;;;;2.53;2.10;;;;;;;;;;5112798;28;20212;-64
2024/04/06 04:55:43;;;;;;;4.73;1.63;;;;;;;;;;5113113;28;20172;-64
2024/04/06 04:58:09;;;;;;;3.13;1.80;;;;;;;;;;5113136;28;20245;-64
2024/04/06 05:00:35;;;;;;;2.27;1.77;;;;;;;;;;5112747;28;20678;-64
2024/04/06 05:03:01;;;;;;;2.67;1.73;;;;;;;;;;5113462;28;20637;-65
2024/04/06 05:05:27;;;;;;;1.67;1.53;;;;;;;;;;5112478;28;20634;-62
2024/04/06 05:07:53;;;;;;;1.90;1.80;;;;;;;;;;5113013;28;20645;-60
2024/04/06 05:10:20;;;;;;;2.43;1.70;;;;;;;;;;5113094;28;20644;-58
2024/04/06 05:12:46;;;;;;;3.77;1.70;;;;;;;;;;5111810;28;20195;-58
2024/04/06 05:15:12;;;;;;;3.00;1.70;;;;;;;;;;5093859;28;20165;-58
2024/04/06 05:17:38;;;;;;;1.70;1.60;;;;;;;;;;5112738;28;20723;-56
2024/04/06 05:20:05;;;;;;;2.20;1.90;;;;;;;;;;5112199;28;20169;-57
2024/04/06 05:22:31;;;;;;;1.97;1.87;;;;;;;;;;5112624;28;20209;-58
2024/04/06 05:24:57;;;;;;;2.10;1.90;;;;;;;;;;5112133;28;20247;-57
2024/04/06 05:27:26;;;;;;;3.00;1.60;;;;;;;;;;5094285;28;20169;-57
2024/04/06 05:29:52;;;;;;;2.33;1.97;;;;;;;;;;5112381;28;20151;-56
2024/04/06 05:32:18;;;;;;;2.33;1.90;;;;;;;;;;5112611;28;20202;-57
2024/04/06 05:34:44;;;;;;;2.57;1.60;;;;;;;;;;5112491;28;20611;-58
2024/04/06 05:37:10;;;;;;;3.03;1.90;;;;;;;;;;5111579;28;20196;-56
2024/04/06 05:39:36;;;;;;;2.57;1.63;;;;;;;;;;5111742;28;20172;-56
2024/04/06 05:42:03;;;;;;;2.37;1.97;;;;;;;;;;5112494;28;20563;-57
2024/04/06 05:44:29;;;;;;;2.30;2.10;;;;;;;;;;5111642;28;20173;-56
2024/04/06 05:46:55;;;;;;;2.97;1.80;;;;;;;;;;5112265;28;20182;-58
2024/04/06 05:49:21;;;;;;;2.70;1.47;;;;;;;;;;5112374;28;20185;-56
2024/04/06 05:51:47;;;;;;;1.90;1.70;;;;;;;;;;5111441;28;20190;-56
2024/04/06 05:54:13;;;;;;;2.37;1.70;;;;;;;;;;5093213;28;20182;-57
2024/04/06 05:56:41;;;;;;;2.30;1.80;;;;;;;;;;5111870;28;20162;-57
2024/04/06 05:59:07;;;;;;;3.90;2.30;;;;;;;;;;5111369;28;20161;-58
2024/04/06 06:01:33;;;;;;;4.33;1.73;;;;;;;;;;5111634;28;20177;-57
2024/04/06 06:03:59;;;;;;;2.53;1.67;;;;;;;;;;5111989;28;20179;-56
2024/04/06 06:06:25;;;;;;;5.27;2.00;;;;;;;;;;5110906;28;20188;-57
2024/04/06 06:08:53;;;;;;;2.83;1.93;;;;;;;;;;5111491;28;20165;-57
2024/04/06 06:11:19;;;;;;;3.30;1.90;;;;;;;;;;5111790;28;20309;-58
2024/04/06 06:13:45;;;;;;;2.30;1.83;;;;;;;;;;5111297;28;20472;-57
2024/04/06 06:16:11;;;;;;;2.47;2.00;;;;;;;;;;5111395;28;20222;-56
2024/04/06 06:18:37;;;;;;;2.77;2.10;;;;;;;;;;5111393;28;20204;-56
2024/04/06 06:21:06;;;;;;;3.63;1.93;;;;;;;;;;5111321;28;20181;-57
2024/04/06 06:23:32;;;;;;;3.30;2.00;;;;;;;;;;5110532;28;20304;-56
2024/04/06 06:25:58;;;;;;;2.73;1.90;;;;;;;;;;5111159;28;20206;-60
2024/04/06 06:28:24;;;;;;;4.13;2.27;;;;;;;;;;5111247;28;20168;-61
2024/04/06 06:30:50;;;;;;;3.20;1.90;;;;;;;;;;5111096;28;20171;-60
2024/04/06 06:33:21;;;;;;;2.23;1.87;;;;;;;;;;5111129;28;20197;-61
2024/04/06 06:35:53;;;;;;;3.10;2.07;;;;;;;;;;5110883;28;20268;-60
2024/04/06 06:38:19;;;;;;;2.57;1.87;;;;;;;;;;5110982;28;20703;-61
2024/04/06 06:40:46;;;;;;;2.87;1.90;;;;;;;;;;5111207;28;20692;-61
2024/04/06 06:43:13;;;;;;;3.37;2.00;;;;;;;;;;5111030;28;20207;-61
2024/04/06 06:45:39;;;;;;;2.03;1.83;;;;;;;;;;5110652;28;20193;-61
2024/04/06 06:48:05;;;;;;;4.77;1.87;;;;;;;;;;5111131;28;20189;-61
2024/04/06 06:50:31;;;;;;;3.97;1.87;;;;;;;;;;5110295;28;20166;-60
2024/04/06 06:52:57;;;;;;;2.83;1.97;;;;;;;;;;5110247;28;20193;-61
2024/04/06 06:55:23;;;;;;;2.33;2.13;;;;;;;;;;5110903;28;20170;-61
2024/04/06 06:57:49;;;;;;;3.90;1.90;;;;;;;;;;5110969;28;20521;-61
2024/04/06 07:00:15;;;;;;;3.07;2.23;;;;;;;;;;5110159;28;20181;-61
2024/04/06 07:02:41;;;;;;;2.85;2.20;;;;;;;;;;5109999;28;20414;-61
2024/04/06 07:05:07;;;;;;;5.60;2.10;;;;;;;;;;5109902;28;20169;-61
2024/04/06 07:07:35;;;;;;;2.33;2.13;;;;;;;;;;5110504;28;20164;-61
2024/04/06 07:10:04;;;;;;;3.13;2.27;;;;;;;;;;5109966;28;20642;-60
2024/04/06 07:12:31;;;;;;;2.77;1.90;;;;;;;;;;5110653;28;20206;-61
2024/04/06 07:14:57;;;;;;;3.77;2.07;;;;;;;;;;5109883;28;20185;-61
2024/04/06 07:17:23;;;;;;;3.43;1.80;;;;;;;;;;5110363;28;20267;-61
2024/04/06 07:19:49;;;;;;;2.97;2.00;;;;;;;;;;5110466;28;20166;-63
2024/04/06 07:22:15;;;;;;;5.07;2.10;;;;;;;;;;5110256;28;20691;-59
2024/04/06 07:24:44;;;;;;;2.60;1.97;;;;;;;;;;5109905;28;20232;-60
2024/04/06 07:27:11;;;;;;;2.13;1.70;;;;;;;;;;5110451;28;20175;-61
2024/04/06 07:29:37;;;;;;;5.03;3.10;;;;;;;;;;5110035;28;20163;-63
2024/04/06 07:32:04;;;;;;;2.50;1.80;;;;;;;;;;5110120;28;20711;-60
2024/04/06 07:34:30;;;;;;;2.27;2.07;;;;;;;;;;5109506;28;20259;-61
2024/04/06 07:36:56;;;;;;;1.93;1.83;;;;;;;;;;5109666;28;20606;-60
2024/04/06 07:39:22;;;;;;;2.23;1.80;;;;;;;;;;5109727;28;20258;-60
2024/04/06 07:41:48;;;;;;;3.70;1.90;;;;;;;;;;5109767;28;20179;-62
2024/04/06 07:44:14;;;;;;;2.20;2.00;;;;;;;;;;5109681;28;20171;-64
2024/04/06 07:46:40;;;;;;;6.07;1.93;;;;;;;;;;5110130;28;20559;-61
2024/04/06 07:49:06;;;;;;;2.30;1.80;;;;;;;;;;5109845;28;20237;-61
2024/04/06 07:51:32;;;;;;;3.80;2.17;;;;;;;;;;5109348;28;20199;-61
2024/04/06 07:53:58;;;;;;;4.90;2.00;;;;;;;;;;5109377;28;20220;-61
2024/04/06 07:56:24;;;;;;;4.07;2.03;;;;;;;;;;5109968;28;20159;-61
2024/04/06 07:58:50;;;;;;;2.83;2.13;;;;;;;;;;5109263;28;20174;-61
2024/04/06 08:01:16;;;;;;;4.60;2.00;;;;;;;;;;5109677;28;20607;-61
2024/04/06 08:03:42;;;;;;;2.60;1.90;;;;;;;;;;5109950;28;20560;-62
2024/04/06 08:06:08;;;;;;;3.20;2.20;;;;;;;;;;5109388;28;20678;-62
2024/04/06 08:08:34;;;;;;;2.33;1.90;;;;;;;;;;5109051;28;20247;-62
2024/04/06 08:11:01;;;;;;;4.33;2.50;;;;;;;;;;5109702;28;20160;-62
2024/04/06 08:13:27;;;;;;;2.80;1.90;;;;;;;;;;5108957;28;20218;-61
2024/04/06 08:15:53;;;;;;;3.50;2.03;;;;;;;;;;5109706;28;20168;-61
2024/04/06 08:18:19;;;;;;;2.40;1.80;;;;;;;;;;5109714;28;20248;-61
2024/04/06 08:20:45;;;;;;;2.20;1.70;;;;;;;;;;5109400;28;20159;-61
2024/04/06 08:23:12;;;;;;;2.60;1.60;;;;;;;;;;5109240;28;20311;-61
2024/04/06 08:25:38;;;;;;;3.50;1.87;;;;;;;;;;5109520;28;20170;-61
2024/04/06 08:28:04;;;;;;;2.93;1.97;;;;;;;;;;5109767;28;20163;-61
2024/04/06 08:30:30;;;;;;;2.53;2.03;;;;;;;;;;5109052;28;20284;-61
2024/04/06 08:32:56;;;;;;;3.80;2.23;;;;;;;;;;5109635;28;20294;-61
2024/04/06 08:35:22;;;;;;;2.57;2.20;;;;;;;;;;5109104;28;20167;-61
2024/04/06 08:37:49;;;;;;;4.43;1.90;;;;;;;;;;5091701;28;20172;-61
2024/04/06 08:40:16;;;;;;;2.40;1.70;;;;;;;;;;5089047;28;20167;-61
2024/04/06 08:42:43;;;;;;;3.03;2.30;;;;;;;;;;5089213;28;20151;-61
2024/04/06 08:45:09;;;;;;;3.57;2.00;;;;;;;;;;5088561;28;20219;-62
2024/04/06 08:47:35;;;;;;;2.20;2.00;;;;;;;;;;5092444;28;20183;-62
2024/04/06 08:50:05;;;;;;;3.57;2.03;;;;;;;;;;5092535;28;20210;-60
2024/04/06 08:52:34;;;;;;;4.47;1.73;;;;;;;;;;5092801;28;20241;-62
2024/04/06 08:55:00;;;;;;;1.80;1.70;;;;;;;;;;5092414;28;20160;-62
2024/04/06 08:57:27;;;;;;;2.07;1.87;;;;;;;;;;5092659;28;20164;-61
2024/04/06 08:59:53;;;;;;;1.90;1.70;;;;;;;;;;5092106;28;20160;-62
2024/04/06 09:02:19;;;;;;;5.03;1.80;;;;;;;;;;5092750;28;20182;-61
2024/04/06 09:04:45;;;;;;;1.93;1.70;;;;;;;;;;5092191;28;20172;-61
2024/04/06 09:07:11;;;;;;;2.20;2.00;;;;;;;;;;5092571;28;20164;-61
2024/04/06 09:09:37;;;;;;;3.83;2.03;;;;;;;;;;5091752;28;20225;-62
2024/04/06 09:12:04;;;;;;;2.30;2.10;;;;;;;;;;5092590;28;20184;-61
2024/04/06 09:14:31;;;;;;;2.30;2.10;;;;;;;;;;5091969;28;20581;-61
2024/04/06 09:16:59;;;;;;;2.23;1.90;;;;;;;;;;5092545;28;20214;-61
2024/04/06 09:19:25;;;;;;;2.07;1.87;;;;;;;;;;5092191;28;20598;-61
2024/04/06 09:21:51;;;;;;;2.40;1.57;;;;;;;;;;5073686;28;20179;-61
2024/04/06 09:24:17;;;;;;;3.70;1.60;;;;;;;;;;5091593;28;20682;-60
2024/04/06 09:26:46;;;;;;;3.57;1.97;;;;;;;;;;5092396;28;20206;-61
2024/04/06 09:29:12;;;;;;;2.20;1.83;;;;;;;;;;5091943;28;20619;-60
2024/04/06 09:31:39;;;;;;;3.00;1.80;;;;;;;;;;5092199;28;20215;-60
2024/04/06 09:34:05;;;;;;;4.60;2.17;;;;;;;;;;5091934;28;20182;-60
2024/04/06 09:36:35;;;;;;;6.60;2.57;;;;;;;;;;5091569;28;20180;-60
2024/04/06 09:39:04;;;;;;;3.73;1.90;;;;;;;;;;5091806;28;20181;-61
2024/04/06 09:41:31;;;;;;;3.27;1.90;;;;;;;;;;5092061;28;20148;-61
2024/04/06 09:43:58;;;;;;;2.10;1.70;;;;;;;;;;5091392;28;20173;-60
2024/04/06 09:46:24;;;;;;;2.10;1.90;;;;;;;;;;5091702;28;20263;-61
2024/04/06 09:48:50;;;;;;;3.50;1.90;;;;;;;;;;5091989;28;20725;-61
2024/04/06 09:51:16;;;;;;;2.27;1.50;;;;;;;;;;5091431;28;20173;-61
2024/04/06 09:53:43;;;;;;;6.83;2.07;;;;;;;;;;5091136;28;20171;-60
2024/04/06 09:56:10;;;;;;;7.87;1.90;;;;;;;;;;5091594;28;20162;-60
2024/04/06 09:58:37;;;;;;;1.67;1.57;;;;;;;;;;5090128;28;20172;-61
2024/04/06 10:01:12;;;;;;;2.67;1.70;;;;;;;;;;5091589;28;20235;-60
2024/04/06 10:03:49;;;;;;;2.33;1.60;;;;;;;;;;5091644;28;20171;-60
2024/04/06 10:06:19;;;;;;;2.20;1.67;;;;;;;;;;5091396;28;20643;-62
2024/04/06 10:08:52;;;;;;;2.87;1.70;;;;;;;;;;5091057;28;20161;-60
2024/04/06 10:11:19;;;;;;;2.43;1.80;;;;;;;;;;5091182;28;20259;-60
2024/04/06 10:13:58;;;;;;;4.80;2.23;;;;;;;;;;5090782;28;20245;-60
2024/04/06 10:16:28;;;;;;;2.73;1.93;;;;;;;;;;5110369;28;20168;-60
2024/04/06 10:18:57;;;;;;;2.83;1.90;;;;;;;;;;5111513;28;20203;-59
2024/04/06 10:21:33;;;;;;;3.23;2.00;;;;;;;;;;5111638;28;20167;-60
2024/04/06 10:24:02;;;;;;;3.13;1.87;;;;;;;;;;5111109;28;20232;-61
2024/04/06 10:26:28;;;;;;;2.93;1.40;;;;;;;;;;5111419;28;20213;-59
2024/04/06 10:28:54;;;;;;;2.53;1.53;;;;;;;;;;5111339;28;20164;-59
2024/04/06 10:31:20;;;;;;;2.90;1.70;;;;;;;;;;5111333;28;20253;-59
2024/04/06 10:33:46;;;;;;;3.90;1.90;;;;;;;;;;5111272;28;20348;-59
2024/04/06 10:36:13;;;;;;;2.37;1.57;;;;;;;;;;5107007;28;20691;-55
2024/04/06 10:38:40;;;;;;;3.00;1.60;;;;;;;;;;5090654;28;20249;-64
2024/04/06 10:41:06;;;;;;;2.07;1.90;;;;;;;;;;5091249;28;20582;-63
2024/04/06 10:43:35;;;;;;;3.37;1.80;;;;;;;;;;5090537;28;20602;-60
2024/04/06 10:46:04;;;;;;;1.83;1.50;;;;;;;;;;5090833;28;20663;-60
2024/04/06 10:48:31;;;;;;;1.53;1.43;;;;;;;;;;5090748;28;20164;-59
2024/04/06 10:50:57;;;;;;;2.93;1.67;;;;;;;;;;5090284;28;20509;-59
2024/04/06 10:53:25;;;;;;;4.50;1.57;;;;;;;;;;5089985;28;20317;-59
2024/04/06 10:55:52;;;;;;;2.33;1.70;;;;;;;;;;5090418;28;20189;-59
2024/04/06 10:58:18;;;;;;;1.90;1.63;;;;;;;;;;5090759;28;20172;-59
2024/04/06 11:00:46;;;;;;;1.80;1.40;;;;;;;;;;5090121;28;20558;-60
2024/04/06 11:03:12;;;;;;;1.93;1.70;;;;;;;;;;5090595;28;20657;-61
2024/04/06 11:05:39;;;;;;;2.33;1.80;;;;;;;;;;5089895;28;20239;-60
2024/04/06 11:08:05;;;;;;;2.73;1.87;;;;;;;;;;5090012;28;20612;-61
2024/04/06 11:10:32;;;;;;;3.03;1.83;;;;;;;;;;5090097;28;20183;-58
2024/04/06 11:12:58;;;;;;;1.97;1.60;;;;;;;;;;5090083;28;20232;-58
2024/04/06 11:15:26;;;;;;;2.37;2.10;;;;;;;;;;5089692;28;20183;-59
2024/04/06 11:17:53;;;;;;;2.93;2.00;;;;;;;;;;5090314;28;20794;-57
2024/04/06 11:20:19;;;;;;;2.20;1.87;;;;;;;;;;5089805;28;20622;-58
2024/04/06 11:22:45;;;;;;;2.53;1.83;;;;;;;;;;5090096;28;20335;-57
2024/04/06 11:25:18;;;;;;;2.83;2.00;;;;;;;;;;5089181;28;20168;-56
2024/04/06 11:27:48;;;;;;;2.53;1.70;;;;;;;;;;5090290;28;20500;-56
2024/04/06 11:30:16;;;;;;;2.53;1.90;;;;;;;;;;5089504;28;20228;-56
2024/04/06 11:32:42;;;;;;;2.53;2.10;;;;;;;;;;5071556;28;20199;-56
2024/04/06 11:35:08;;;;;;;3.97;2.20;;;;;;;;;;5089502;28;20634;-57
2024/04/06 11:37:34;;;;;;;2.43;1.50;;;;;;;;;;5105465;28;20238;-58
2024/04/06 11:40:00;;;;;;;2.73;1.93;;;;;;;;;;5109871;28;20607;-57
2024/04/06 11:42:27;;;;;;;1.80;1.70;;;;;;;;;;5110567;28;20174;-58
2024/04/06 11:44:53;;;;;;;3.73;1.70;;;;;;;;;;5109551;28;20175;-57
2024/04/06 11:47:19;;;;;;;2.20;1.83;;;;;;;;;;5110017;28;20164;-58
2024/04/06 11:49:45;;;;;;;5.83;2.70;;;;;;;;;;5109710;28;20164;-58
2024/04/06 11:52:11;;;;;;;1.90;1.70;;;;;;;;;;5109573;28;20232;-56
2024/04/06 11:54:38;;;;;;;2.23;1.80;;;;;;;;;;5109434;28;20171;-57
2024/04/06 11:57:04;;;;;;;2.80;2.00;;;;;;;;;;5109976;28;20221;-57
2024/04/06 11:59:30;;;;;;;2.07;1.80;;;;;;;;;;5109623;28;20163;-58
2024/04/06 12:01:56;;;;;;;5.33;2.07;;;;;;;;;;5110088;28;20670;-57
2024/04/06 12:04:22;;;;;;;2.57;1.83;;;;;;;;;;5109709;28;20312;-57
2024/04/06 12:06:48;;;;;;;2.97;1.70;;;;;;;;;;5109551;28;20611;-58
2024/04/06 12:09:14;;;;;;;3.40;1.70;;;;;;;;;;5109200;28;20175;-57
2024/04/06 12:11:40;;;;;;;3.73;1.70;;;;;;;;;;5109776;28;20600;-57
2024/04/06 12:14:07;;;;;;;2.30;2.10;;;;;;;;;;5109479;28;20174;-59
2024/04/06 12:16:34;;;;;;;1.77;1.67;;;;;;;;;;5109652;28;20156;-57
2024/04/06 12:19:00;;;;;;;2.57;1.97;;;;;;;;;;5109613;28;20598;-58
2024/04/06 12:21:26;;;;;;;1.90;1.80;;;;;;;;;;5110795;28;20297;-61
2024/04/06 12:23:53;;;;;;;1.77;1.67;;;;;;;;;;5113194;28;20769;-61
2024/04/06 12:26:19;;;;;;;1.83;1.73;;;;;;;;;;5113907;28;20232;-62
2024/04/06 12:28:46;;;;;;;2.60;2.10;;;;;;;;;;5113146;28;20261;-61
2024/04/06 12:31:12;;;;;;;2.27;1.90;;;;;;;;;;5095139;28;20176;-62
2024/04/06 12:33:38;;;;;;;3.27;2.00;;;;;;;;;;5113323;28;20189;-63
2024/04/06 12:36:05;;;;;;;2.17;1.97;;;;;;;;;;5110232;28;20275;-62
2024/04/06 12:38:31;;;;;;;2.10;1.90;;;;;;;;;;5092878;28;20168;-62
2024/04/06 12:40:57;;;;;;;3.83;1.90;;;;;;;;;;5093135;28;20159;-62
2024/04/06 12:43:23;;;;;;;4.30;1.90;;;;;;;;;;5092873;28;20210;-61
2024/04/06 12:45:49;;;;;;;3.70;1.70;;;;;;;;;;5093110;28;20201;-63
2024/04/06 12:48:15;;;;;;;2.10;1.80;;;;;;;;;;5093410;28;20188;-62
2024/04/06 12:50:44;;;;;;;2.00;1.80;;;;;;;;;;5092407;28;20185;-62
2024/04/06 12:53:10;;;;;;;1.70;1.60;;;;;;;;;;5092588;28;20189;-62
2024/04/06 12:55:36;;;;;;;1.90;1.80;;;;;;;;;;5092758;28;20162;-62
2024/04/06 12:58:02;;;;;;;1.47;1.37;;;;;;;;;;5092580;28;20162;-62
2024/04/06 13:00:28;;;;;;;2.13;1.90;;;;;;;;;;5092263;28;20191;-61
2024/04/06 13:02:54;;;;;;;2.23;1.87;;;;;;;;;;5092618;28;20208;-62
2024/04/06 13:05:20;;;;;;;3.20;1.95;;;;;;;;;;5091994;28;20203;-62
2024/04/06 13:07:46;;;;;;;2.45;1.75;;;;;;;;;;5092500;28;20178;-62
2024/04/06 13:10:13;;;;;;;3.10;2.70;;;;;;;;;;5091963;28;20199;-62
2024/04/06 13:12:39;;;;;;;2.70;2.10;;;;;;;;;;5092643;28;20564;-62
2024/04/06 13:15:08;;;;;;;4.80;1.83;;;;;;;;;;5091855;28;20166;-62
2024/04/06 13:17:35;;;;;;;3.53;1.93;;;;;;;;;;5092419;28;20201;-63
2024/04/06 13:22:57;;;;;;;1.90;1.80;;;;;;;;;;5086833;28;20233;-63
2024/04/06 13:25:24;;;;;;;2.37;1.83;;;;;;;;;;5091887;28;20173;-63
2024/04/06 13:27:51;;;;;;;3.57;1.80;;;;;;;;;;5091911;28;20177;-61
2024/04/06 13:30:20;;;;;;;2.20;2.00;;;;;;;;;;5091673;28;20183;-62
2024/04/06 13:32:47;;;;;;;2.27;1.90;;;;;;;;;;5091220;28;20574;-58
2024/04/06 13:35:13;;;;;;;4.20;1.90;;;;;;;;;;5091442;28;20152;-58
2024/04/06 13:37:39;;;;;;;2.10;1.90;;;;;;;;;;5108243;28;20647;-57
2024/04/06 13:40:10;;;;;;;2.97;1.70;;;;;;;;;;5111761;28;20154;-57
2024/04/06 13:42:39;;;;;;;1.97;1.87;;;;;;;;;;5112411;28;20173;-60
2024/04/06 13:45:08;;;;;;;2.67;2.43;;;;;;;;;;5111906;28;20189;-57
2024/04/06 13:47:35;;;;;;;2.37;2.00;;;;;;;;;;5112310;28;20291;-58
2024/04/06 13:50:01;;;;;;;4.37;1.97;;;;;;;;;;5112118;28;20171;-59
2024/04/06 13:52:27;;;;;;;1.97;1.87;;;;;;;;;;5112316;28;20202;-59
2024/04/06 13:54:53;;;;;;;1.80;1.70;;;;;;;;;;5111603;28;20653;-58
2024/04/06 13:57:19;;;;;;;2.20;2.10;;;;;;;;;;5112141;28;20194;-57
2024/04/06 13:59:45;;;;;;;3.30;2.63;;;;;;;;;;5111120;28;20163;-57
2024/04/06 14:02:11;;;;;;;2.57;2.20;;;;;;;;;;5111836;28;20619;-59
2024/04/06 14:04:37;;;;;;;2.10;1.83;;;;;;;;;;5111574;28;20187;-60
2024/04/06 14:07:04;;;;;;;2.37;2.03;;;;;;;;;;5111317;28;20172;-60
2024/04/06 14:09:30;;;;;;;2.10;1.93;;;;;;;;;;5111395;28;20178;-61
2024/04/06 14:11:56;;;;;;;4.50;2.20;;;;;;;;;;5111661;28;20219;-60
2024/04/06 14:14:22;;;;;;;2.67;2.03;;;;;;;;;;5092625;28;20167;-64
2024/04/06 14:16:52;;;;;;;2.50;2.03;;;;;;;;;;5111428;28;20530;-65
2024/04/06 14:19:21;;;;;;;3.40;1.97;;;;;;;;;;5111540;28;20155;-60
2024/04/06 14:21:47;;;;;;;2.40;1.93;;;;;;;;;;5111130;28;20597;-62
2024/04/06 14:24:14;;;;;;;3.08;2.08;;;;;;;;;;5110826;28;20721;-60
2024/04/06 14:26:40;;;;;;;3.90;2.10;;;;;;;;;;5111441;28;20191;-60
2024/04/06 14:29:06;;;;;;;2.55;1.80;;;;;;;;;;5110996;28;20160;-60
2024/04/06 14:31:32;;;;;;;2.25;1.90;;;;;;;;;;5111299;28;20203;-59
2024/04/06 14:33:58;;;;;;;3.37;1.90;;;;;;;;;;5111117;28;20152;-60
2024/04/06 14:36:24;;;;;;;2.13;1.70;;;;;;;;;;5105107;28;20589;-59
2024/04/06 14:38:50;;;;;;;3.40;2.10;;;;;;;;;;5090079;28;25081;-57
2024/04/06 14:41:16;;;;;;;2.55;1.70;;;;;;;;;;5091071;28;20191;-57